Time;durP1;ratioP1;P1;durP2;ratioP2;P2;SDS_P1;SDS_P2;PMS_P1;PMS_P2;Temp;Humidity;BMP_temperature;BMP_pressure;BME280_temperature;BME280_humidity;BME280_pressure;Samples;Min_cycle;Max_cycle;Signal;HPM_P1;HPM_P2
2023/09/18 00:02:45;;;;;;;7.13;6.47;;;;;;;19.82;76.19;99756.44;10396570;28;20518;-74
2023/09/18 00:07:50;;;;;;;10.35;6.07;;;;;;;19.78;76.16;99739.66;10398953;28;20060;-75
2023/09/18 00:12:52;;;;;;;11.63;6.70;;;;;;;19.78;76.14;99733.34;10402216;28;20053;-75
2023/09/18 00:17:55;;;;;;;8.23;6.60;;;;;;;19.64;76.78;99732.44;10400958;28;20096;-75
2023/09/18 00:22:59;;;;;;;9.50;6.25;;;;;;;19.64;76.79;99727.81;10398846;28;20713;-75
2023/09/18 00:28:02;;;;;;;7.53;6.38;;;;;;;19.60;76.76;99712.06;10397678;28;20049;-74
2023/09/18 00:33:05;;;;;;;9.45;6.90;;;;;;;19.63;76.65;99695.31;10391290;28;20053;-75
2023/09/18 00:38:09;;;;;;;8.50;6.40;;;;;;;19.65;76.56;99688.63;10395489;28;20052;-75
2023/09/18 00:43:12;;;;;;;10.68;7.20;;;;;;;19.59;76.49;99673.09;10397255;28;20124;-76
2023/09/18 00:48:17;;;;;;;8.23;6.47;;;;;;;19.63;76.72;99663.47;10400758;28;20056;-75
2023/09/18 00:53:24;;;;;;;8.52;6.45;;;;;;;19.59;76.71;99642.28;10418314;28;20138;-75
2023/09/18 00:58:27;;;;;;;9.70;6.00;;;;;;;19.57;76.83;99637.03;10412827;28;20738;-75
2023/09/18 01:03:31;;;;;;;8.95;6.88;;;;;;;19.59;76.52;99648.56;10400160;28;21297;-75
2023/09/18 01:08:37;;;;;;;10.95;6.60;;;;;;;19.63;76.23;99638.13;10399118;28;20045;-76
2023/09/18 01:13:50;;;;;;;11.57;6.97;;;;;;;19.56;76.11;99632.66;10399136;28;20143;-76
2023/09/18 01:18:53;;;;;;;9.70;6.75;;;;;;;19.55;76.19;99619.19;10405257;28;20057;-76
2023/09/18 01:23:57;;;;;;;10.77;6.72;;;;;;;19.51;76.62;99620.63;10397008;28;20108;-76
2023/09/18 01:29:00;;;;;;;11.52;6.88;;;;;;;19.46;76.53;99607.63;10399964;28;20049;-76
2023/09/18 01:34:03;;;;;;;11.73;6.90;;;;;;;19.43;76.69;99602.56;10395115;28;20057;-75
2023/09/18 01:39:09;;;;;;;9.75;7.18;;;;;;;19.33;77.27;99593.91;10401563;28;20057;-76
2023/09/18 01:44:12;;;;;;;12.23;7.32;;;;;;;19.37;77.23;99579.72;10400490;28;20049;-76
2023/09/18 01:49:15;;;;;;;12.85;6.63;;;;;;;19.29;77.39;99554.53;10402996;28;20182;-75
2023/09/18 01:54:19;;;;;;;8.93;7.32;;;;;;;19.31;77.50;99552.44;10401068;28;20139;-76
2023/09/18 01:59:23;;;;;;;12.30;7.53;;;;;;;19.31;77.43;99556.03;10400674;28;20040;-76
2023/09/18 02:04:27;;;;;;;8.90;6.60;;;;;;;19.21;77.94;99553.66;10397457;28;20045;-76
2023/09/18 02:09:51;;;;;;;9.65;6.80;;;;;;;19.24;77.55;99546.97;10405803;28;20408;-75
2023/09/18 02:14:57;;;;;;;9.30;7.10;;;;;;;19.32;77.48;99545.97;10404651;28;20425;-76
2023/09/18 02:20:00;;;;;;;9.40;7.00;;;;;;;19.36;77.08;99548.09;10405013;28;20055;-76
2023/09/18 02:25:06;;;;;;;10.32;7.25;;;;;;;19.22;77.48;99536.25;10403549;28;20524;-75
2023/09/18 02:30:10;;;;;;;13.40;6.72;;;;;;;19.38;76.96;99536.97;10402516;28;20657;-76
2023/09/18 02:35:13;;;;;;;10.75;6.47;;;;;;;19.33;76.94;99529.41;10403574;28;20529;-74
2023/09/18 02:40:17;;;;;;;10.38;7.55;;;;;;;19.31;77.41;99515.19;10403132;28;20064;-76
2023/09/18 02:45:20;;;;;;;12.55;7.03;;;;;;;19.35;77.04;99515.59;10399462;28;20503;-74
2023/09/18 02:50:23;;;;;;;14.25;7.10;;;;;;;19.32;77.18;99505.13;10401737;28;20052;-74
2023/09/18 02:55:27;;;;;;;12.13;7.20;;;;;;;19.16;77.46;99493.53;10402055;28;20102;-75
2023/09/18 03:00:30;;;;;;;10.13;6.60;;;;;;;19.22;77.28;99492.72;10401792;28;20041;-76
2023/09/18 03:05:46;;;;;;;11.30;7.55;;;;;;;19.29;76.49;99468.25;10399776;28;21596;-76
2023/09/18 03:10:50;;;;;;;11.80;6.40;;;;;;;19.30;76.59;99455.47;10391955;28;20041;-75
2023/09/18 03:15:53;;;;;;;11.85;6.40;;;;;;;19.21;76.89;99447.50;10389387;28;20520;-75
2023/09/18 03:20:59;;;;;;;9.93;6.72;;;;;;;19.13;77.12;99435.94;10392126;28;20073;-75
2023/09/18 03:26:04;;;;;;;7.50;6.15;;;;;;;19.14;76.56;99430.31;10410646;28;20416;-75
2023/09/18 03:31:07;;;;;;;12.55;6.10;;;;;;;19.18;76.53;99422.56;10397196;28;20041;-74
2023/09/18 03:36:11;;;;;;;9.77;6.97;;;;;;;19.37;75.84;99407.34;10399798;28;20238;-75
2023/09/18 03:41:15;;;;;;;11.32;6.13;;;;;;;19.38;75.23;99390.78;10402722;28;20135;-75
2023/09/18 03:46:19;;;;;;;9.43;5.72;;;;;;;19.48;74.95;99378.66;10406098;28;20047;-75
2023/09/18 03:51:24;;;;;;;8.60;6.28;;;;;;;19.26;75.22;99372.56;10401733;28;20087;-76
2023/09/18 03:56:29;;;;;;;8.88;6.45;;;;;;;19.48;74.49;99359.59;10402264;28;20420;-76
2023/09/18 04:01:31;;;;;;;8.10;5.88;;;;;;;19.59;73.84;99345.41;10404485;28;20048;-75
2023/09/18 04:06:41;;;;;;;8.73;6.28;;;;;;;19.47;74.30;99334.25;10400645;28;20102;-75
2023/09/18 04:11:45;;;;;;;6.32;5.35;;;;;;;19.47;74.05;99323.34;10416198;28;20049;-76
2023/09/18 04:16:48;;;;;;;8.27;6.57;;;;;;;19.63;73.44;99333.88;10400979;28;20057;-76
2023/09/18 04:21:54;;;;;;;10.07;6.50;;;;;;;19.65;73.38;99329.06;10403865;28;20052;-75
2023/09/18 04:26:58;;;;;;;7.75;5.43;;;;;;;19.46;74.13;99348.91;10397297;28;20127;-76
2023/09/18 04:32:03;;;;;;;9.10;5.70;;;;;;;19.39;74.48;99326.25;10403560;28;20060;-75
2023/09/18 04:37:07;;;;;;;6.88;5.68;;;;;;;19.37;74.73;99315.59;10406105;28;20593;-75
2023/09/18 04:42:11;;;;;;;8.60;5.85;;;;;;;19.34;74.59;99313.28;10408566;28;20050;-75
2023/09/18 04:47:14;;;;;;;13.95;6.80;;;;;;;19.27;75.37;99300.72;10401776;28;20111;-75
2023/09/18 04:52:18;;;;;;;8.68;6.00;;;;;;;19.39;74.88;99291.72;10414057;28;20052;-75
2023/09/18 04:57:23;;;;;;;9.63;6.15;;;;;;;19.32;75.35;99285.44;10417930;28;20045;-74
2023/09/18 05:02:26;;;;;;;8.52;6.85;;;;;;;19.42;74.97;99285.88;10413857;28;20040;-76
2023/09/18 05:07:29;;;;;;;8.90;6.43;;;;;;;19.43;74.69;99294.88;10405552;28;20041;-75
2023/09/18 05:12:33;;;;;;;9.20;6.90;;;;;;;19.41;74.66;99283.34;10408358;28;20060;-76
2023/09/18 05:17:44;;;;;;;6.93;6.15;;;;;;;19.47;74.79;99268.88;10416309;28;20057;-75
2023/09/18 05:22:47;;;;;;;9.88;6.60;;;;;;;19.20;77.69;99307.00;10408188;28;21186;-76
2023/09/18 05:27:55;;;;;;;9.73;7.03;;;;;;;18.97;81.97;99290.19;10403848;28;20041;-76
2023/09/18 05:33:04;;;;;;;8.15;7.15;;;;;;;18.41;87.21;99299.38;10403740;28;20045;-75
2023/09/18 05:38:08;;;;;;;42.88;9.52;;;;;;;17.85;99.51;99303.00;10405506;28;20052;-77
2023/09/18 05:43:12;;;;;;;13.02;8.80;;;;;;;17.62;100.00;99264.38;10403351;28;21514;-77
2023/09/18 05:48:15;;;;;;;11.23;8.98;;;;;;;17.77;100.00;99266.97;10403335;28;20041;-76
2023/09/18 05:53:18;;;;;;;9.30;8.13;;;;;;;17.85;100.00;99258.66;10398219;28;20523;-76
2023/09/18 05:58:25;;;;;;;11.48;8.30;;;;;;;18.01;100.00;99266.53;10409836;28;20045;-76
2023/09/18 06:03:30;;;;;;;9.05;7.30;;;;;;;18.20;100.00;99256.81;10418829;28;20048;-75
2023/09/18 06:08:33;;;;;;;8.68;7.53;;;;;;;18.33;100.00;99270.47;10434081;28;20147;-76
2023/09/18 06:13:38;;;;;;;12.52;8.75;;;;;;;18.38;100.00;99274.50;10409579;28;20081;-76
2023/09/18 06:18:41;;;;;;;9.30;7.15;;;;;;;18.36;99.03;99267.34;10402816;28;20084;-76
2023/09/18 06:23:44;;;;;;;9.88;7.38;;;;;;;18.58;100.00;99264.50;10407965;28;20049;-76
2023/09/18 06:28:48;;;;;;;9.60;7.07;;;;;;;18.71;99.35;99270.00;10409466;28;20076;-76
2023/09/18 06:33:55;;;;;;;11.00;7.05;;;;;;;18.88;100.00;99267.78;10404438;28;20044;-76
2023/09/18 06:38:58;;;;;;;12.98;7.28;;;;;;;18.98;96.34;99264.69;10397204;28;20056;-76
2023/09/18 06:44:03;;;;;;;10.02;6.28;;;;;;;19.08;95.14;99270.53;10397280;28;20068;-76
2023/09/18 06:49:06;;;;;;;12.13;6.15;;;;;;;19.13;95.05;99289.81;10404043;28;20800;-76
2023/09/18 06:54:09;;;;;;;8.02;6.30;;;;;;;19.37;96.18;99293.00;10414657;28;20048;-75
2023/09/18 06:59:15;;;;;;;8.40;6.38;;;;;;;19.48;93.32;99296.97;10407230;28;20523;-75
2023/09/18 07:04:19;;;;;;;8.32;5.20;;;;;;;19.51;90.29;99282.94;10405527;28;20404;-76
2023/09/18 07:09:23;;;;;;;6.45;5.50;;;;;;;19.73;89.08;99283.59;10402418;28;20199;-75
2023/09/18 07:14:27;;;;;;;9.43;5.55;;;;;;;19.92;84.82;99292.78;10405155;28;20080;-75
2023/09/18 07:19:30;;;;;;;6.25;5.45;;;;;;;19.92;83.11;99309.97;10406578;28;20045;-75
2023/09/18 07:24:33;;;;;;;6.20;5.03;;;;;;;20.10;80.48;99296.53;10405117;28;20130;-75
2023/09/18 07:29:37;;;;;;;7.80;5.03;;;;;;;20.20;77.80;99311.59;10402996;28;20049;-76
2023/09/18 07:34:40;;;;;;;9.20;4.60;;;;;;;20.62;76.34;99303.94;10402567;28;20059;-76
2023/09/18 07:39:43;;;;;;;6.30;4.82;;;;;;;21.29;72.80;99318.94;10402836;28;20071;-76
2023/09/18 07:44:47;;;;;;;8.57;3.97;;;;;;;21.38;70.03;99319.50;10400587;28;20060;-75
2023/09/18 07:49:50;;;;;;;9.05;4.53;;;;;;;21.63;70.26;99323.09;10394949;28;20424;-76
2023/09/18 07:54:53;;;;;;;6.47;3.35;;;;;;;21.52;68.98;99350.31;10401780;28;20053;-76
2023/09/18 07:59:57;;;;;;;6.80;3.55;;;;;;;21.28;68.63;99325.44;10398826;28;20052;-75
2023/09/18 08:05:00;;;;;;;9.23;3.70;;;;;;;21.42;69.83;99318.03;10397885;28;20057;-76
2023/09/18 08:10:08;;;;;;;7.35;3.45;;;;;;;21.19;68.80;99337.69;10393464;28;20045;-76
2023/09/18 08:15:12;;;;;;;6.95;2.65;;;;;;;20.90;69.14;99356.31;10396999;28;20051;-75
2023/09/18 08:20:16;;;;;;;4.28;1.73;;;;;;;20.89;68.85;99351.06;10410114;28;20052;-75
2023/09/18 08:25:19;;;;;;;8.48;1.95;;;;;;;21.01;68.03;99341.16;10403715;28;20060;-76
2023/09/18 08:30:23;;;;;;;5.68;2.22;;;;;;;20.89;68.32;99354.63;10407804;28;20060;-77
2023/09/18 08:35:29;;;;;;;4.10;1.65;;;;;;;21.09;67.22;99334.59;10405011;28;20397;-76
2023/09/18 08:40:32;;;;;;;7.28;2.10;;;;;;;20.96;68.04;99341.78;10408597;28;20049;-76
2023/09/18 08:45:44;;;;;;;6.03;2.92;;;;;;;20.91;68.21;99311.56;10407901;28;20056;-75
2023/09/18 08:50:48;;;;;;;5.03;1.88;;;;;;;20.62;69.01;99328.50;10413584;28;20115;-76
2023/09/18 08:55:51;;;;;;;5.03;1.55;;;;;;;20.62;68.72;99380.31;10418120;28;20045;-76
2023/09/18 09:00:55;;;;;;;4.22;1.77;;;;;;;20.89;68.20;99353.78;10410753;28;20045;-76
2023/09/18 09:06:00;;;;;;;6.10;1.88;;;;;;;21.33;67.16;99338.44;10413267;28;20135;-76
2023/09/18 09:11:04;;;;;;;4.05;2.13;;;;;;;21.23;66.93;99330.75;10409415;28;20445;-77
2023/09/18 09:16:12;;;;;;;7.07;2.20;;;;;;;21.11;66.90;99365.25;10408673;28;20063;-75
2023/09/18 09:21:16;;;;;;;5.43;2.00;;;;;;;20.94;67.78;99359.44;10400623;28;20503;-76
2023/09/18 09:26:21;;;;;;;4.57;2.05;;;;;;;21.49;66.62;99343.38;10405753;28;20048;-76
2023/09/18 09:31:27;;;;;;;7.05;2.25;;;;;;;21.49;66.35;99357.03;10405113;28;20186;-76
2023/09/18 09:36:33;;;;;;;2.35;1.73;;;;;;;21.47;66.33;99391.94;10398340;28;20049;-76
2023/09/18 09:41:36;;;;;;;6.93;2.10;;;;;;;21.63;66.06;99358.63;10405133;28;20052;-76
2023/09/18 09:46:46;;;;;;;5.88;1.90;;;;;;;21.73;65.81;99354.56;10405980;28;20791;-76
2023/09/18 09:51:49;;;;;;;8.40;2.05;;;;;;;21.48;66.01;99351.81;10396891;28;20058;-76
2023/09/18 09:56:53;;;;;;;7.65;2.05;;;;;;;21.45;66.89;99364.84;10395800;28;20057;-76
2023/09/18 10:01:59;;;;;;;5.15;2.28;;;;;;;21.10;67.15;99391.72;10401035;28;20053;-76
2023/09/18 10:07:09;;;;;;;6.90;1.80;;;;;;;21.01;67.45;99361.09;10396347;28;20053;-77
2023/09/18 10:12:16;;;;;;;4.15;1.50;;;;;;;20.88;67.43;99380.25;10397225;28;20052;-76
2023/09/18 10:17:20;;;;;;;4.15;1.70;;;;;;;21.07;67.32;99378.50;10396654;28;20049;-76
2023/09/18 10:22:32;;;;;;;5.00;1.67;;;;;;;21.44;66.31;99362.31;10402393;28;20045;-76
2023/09/18 10:27:38;;;;;;;3.20;1.53;;;;;;;21.88;65.45;99355.91;10397253;28;20128;-76
2023/09/18 10:32:45;;;;;;;3.22;2.00;;;;;;;21.64;65.61;99375.88;10394647;28;20057;-76
2023/09/18 10:37:51;;;;;;;2.00;1.33;;;;;;;21.17;66.84;99408.06;10395673;28;20099;-77
2023/09/18 10:42:57;;;;;;;4.85;2.28;;;;;;;21.71;65.51;99406.69;10399206;28;20052;-77
2023/09/18 10:48:03;;;;;;;6.18;1.30;;;;;;;21.65;64.81;99411.16;10399112;28;21138;-77
2023/09/18 10:53:06;;;;;;;4.93;1.98;;;;;;;21.43;64.92;99407.09;10410459;28;20174;-76
2023/09/18 10:58:09;;;;;;;5.65;1.77;;;;;;;21.91;64.29;99394.81;10400933;28;20548;-76
2023/09/18 11:03:17;;;;;;;3.63;1.80;;;;;;;22.30;62.83;99389.00;10396259;28;21294;-76
2023/09/18 11:08:31;;;;;;;4.45;1.88;;;;;;;22.39;62.41;99375.03;10392119;28;20179;-76
2023/09/18 11:13:37;;;;;;;4.47;1.88;;;;;;;22.06;63.42;99379.75;10390126;28;20059;-76
2023/09/18 11:18:43;;;;;;;5.68;2.35;;;;;;;21.99;63.32;99391.81;10388747;28;20131;-76
2023/09/18 11:23:46;;;;;;;4.00;1.30;;;;;;;21.51;64.17;99400.53;10379246;28;20420;-76
2023/09/18 11:28:50;;;;;;;5.50;1.80;;;;;;;22.02;63.86;99399.56;10387437;28;20061;-75
2023/09/18 11:33:54;;;;;;;3.72;1.58;;;;;;;21.87;63.21;99425.31;10391769;28;20064;-77
2023/09/18 11:39:01;;;;;;;8.20;1.83;;;;;;;21.81;63.43;99404.34;10402140;28;20591;-76
2023/09/18 11:44:36;;;;;;;3.17;1.45;;;;;;;21.85;63.66;99402.84;10400891;28;20044;-75
2023/09/18 11:49:49;;;;;;;6.15;1.65;;;;;;;22.47;62.29;99397.50;10410991;28;20052;-80
2023/09/18 11:54:52;;;;;;;4.13;1.92;;;;;;;24.68;56.04;99398.72;10412284;28;20048;-78
2023/09/18 11:59:59;;;;;;;3.72;1.70;;;;;;;25.61;53.22;99391.25;10414718;28;20053;-77
2023/09/18 12:05:11;;;;;;;7.82;1.90;;;;;;;24.35;55.71;99397.41;10413162;28;20617;-77
2023/09/18 12:10:16;;;;;;;4.13;1.55;;;;;;;23.45;56.32;99390.22;10416380;28;20045;-77
2023/09/18 12:15:20;;;;;;;1.67;1.50;;;;;;;22.36;59.29;99403.69;10404210;28;20073;-76
2023/09/18 12:20:25;;;;;;;3.15;1.63;;;;;;;23.10;58.89;99393.59;10396379;28;20049;-77
2023/09/18 12:25:28;;;;;;;2.33;1.45;;;;;;;22.75;59.13;99404.34;10398459;28;20500;-77
2023/09/18 12:30:33;;;;;;;4.47;1.50;;;;;;;22.89;59.49;99385.84;10396725;28;20120;-77
2023/09/18 12:35:41;;;;;;;5.20;1.58;;;;;;;22.87;59.09;99386.06;10401410;28;20045;-78
2023/09/18 12:40:46;;;;;;;3.42;1.30;;;;;;;22.71;59.56;99382.06;10406842;28;20048;-77
2023/09/18 12:45:49;;;;;;;4.43;1.58;;;;;;;22.59;60.01;99383.06;10400283;28;20055;-77
2023/09/18 12:50:54;;;;;;;2.92;1.30;;;;;;;23.01;59.17;99367.59;10409490;28;20689;-77
2023/09/18 12:56:06;;;;;;;4.85;1.45;;;;;;;23.47;57.12;99363.41;10414579;28;20669;-77
2023/09/18 13:01:13;;;;;;;4.07;1.40;;;;;;;24.52;56.13;99368.22;10411375;28;20072;-77
2023/09/18 13:06:20;;;;;;;2.53;1.52;;;;;;;27.83;47.27;99354.34;10402593;28;20051;-76
2023/09/18 13:11:23;;;;;;;4.15;1.42;;;;;;;27.32;47.67;99353.06;10403441;28;20053;-77
2023/09/18 13:16:26;;;;;;;3.13;1.58;;;;;;;26.18;48.99;99335.28;10398206;28;20053;-76
2023/09/18 13:21:30;;;;;;;1.95;1.30;;;;;;;26.08;49.63;99335.97;10402555;28;20053;-77
2023/09/18 13:26:33;;;;;;;1.98;1.00;;;;;;;24.90;52.85;99350.34;10406852;28;20060;-77
2023/09/18 13:31:36;;;;;;;3.92;1.55;;;;;;;23.78;56.74;99351.34;10411565;28;20052;-76
2023/09/18 13:36:41;;;;;;;3.95;1.45;;;;;;;23.90;55.88;99348.63;10414626;28;20059;-76
2023/09/18 13:41:44;;;;;;;2.35;1.40;;;;;;;23.34;57.56;99347.13;10406025;28;20151;-76
2023/09/18 13:46:47;;;;;;;3.65;1.60;;;;;;;23.62;55.68;99336.41;10409454;28;20055;-77
2023/09/18 13:51:51;;;;;;;2.88;1.40;;;;;;;25.03;52.00;99326.44;10413788;28;20090;-77
2023/09/18 13:56:55;;;;;;;1.92;1.08;;;;;;;27.36;46.90;99313.66;10408091;28;20045;-76
2023/09/18 14:02:00;;;;;;;5.55;1.23;;;;;;;24.73;52.30;99341.19;10406626;28;20064;-77
2023/09/18 14:07:04;;;;;;;3.50;1.80;;;;;;;23.89;54.99;99341.47;10414320;28;20041;-76
2023/09/18 14:12:08;;;;;;;2.47;1.23;;;;;;;23.39;55.17;99311.66;10416664;28;20048;-77
2023/09/18 14:17:11;;;;;;;5.35;1.27;;;;;;;22.89;56.72;99310.03;10427805;28;20049;-77
2023/09/18 14:22:16;;;;;;;3.15;1.20;;;;;;;22.93;56.68;99304.94;10413647;28;20044;-76
2023/09/18 14:27:19;;;;;;;2.78;1.45;;;;;;;22.65;57.19;99302.78;10415701;28;20041;-77
2023/09/18 14:32:22;;;;;;;1.98;1.45;;;;;;;22.51;57.33;99304.84;10411011;28;20052;-77
2023/09/18 14:37:26;;;;;;;4.10;1.27;;;;;;;22.46;57.75;99311.00;10411358;28;20064;-77
2023/09/18 14:42:29;;;;;;;4.07;1.75;;;;;;;22.44;58.28;99315.03;10412461;28;20497;-77
2023/09/18 14:47:32;;;;;;;2.78;1.00;;;;;;;22.44;58.25;99307.66;10412816;28;20041;-77
2023/09/18 14:52:36;;;;;;;4.07;1.15;;;;;;;22.42;58.43;99303.44;10409136;28;20053;-77
2023/09/18 14:57:39;;;;;;;4.03;1.33;;;;;;;22.53;60.20;99319.13;10412710;28;20463;-77
2023/09/18 15:02:42;;;;;;;1.83;1.25;;;;;;;20.94;66.21;99324.78;10398862;28;20053;-77
2023/09/18 15:07:46;;;;;;;3.70;1.60;;;;;;;20.99;67.94;99327.69;10406164;28;20048;-77
2023/09/18 15:12:49;;;;;;;1.92;1.40;;;;;;;21.55;60.25;99300.69;10396398;28;20068;-77
2023/09/18 15:17:53;;;;;;;2.88;1.52;;;;;;;22.37;57.50;99315.06;10400263;28;20082;-77
2023/09/18 15:22:57;;;;;;;4.65;1.50;;;;;;;22.18;58.14;99300.53;10401829;28;20203;-77
2023/09/18 15:28:00;;;;;;;4.75;1.77;;;;;;;23.05;56.59;99294.03;10403932;28;20046;-76
2023/09/18 15:33:04;;;;;;;2.55;1.60;;;;;;;23.84;55.25;99306.53;10404401;28;20052;-77
2023/09/18 15:38:09;;;;;;;2.50;1.60;;;;;;;24.22;54.87;99296.16;10408378;28;20718;-77
2023/09/18 15:43:12;;;;;;;2.72;1.27;;;;;;;24.18;55.62;99297.69;10408379;28;20068;-77
2023/09/18 15:48:14;;;;;;;5.40;1.42;;;;;;;24.10;56.73;99286.00;10407613;28;20059;-78
2023/09/18 15:53:19;;;;;;;8.20;1.45;;;;;;;24.71;55.69;99269.19;10403572;28;20144;-78
2023/09/18 15:58:24;;;;;;;4.72;1.35;;;;;;;23.87;57.56;99275.06;10409285;28;20052;-77
2023/09/18 16:03:27;;;;;;;2.65;1.20;;;;;;;23.23;60.14;99269.38;10402700;28;20132;-77
2023/09/18 16:08:32;;;;;;;2.50;1.38;;;;;;;22.54;62.67;99263.31;10411074;28;20122;-78
2023/09/18 16:13:34;;;;;;;3.17;1.77;;;;;;;22.25;64.14;99265.75;10411076;28;20048;-77
2023/09/18 16:18:38;;;;;;;2.95;1.70;;;;;;;22.02;65.63;99254.66;10409214;28;20059;-77
2023/09/18 16:23:42;;;;;;;3.10;1.80;;;;;;;21.94;65.55;99260.41;10409464;28;20048;-77
2023/09/18 16:28:46;;;;;;;2.65;1.60;;;;;;;21.96;65.13;99252.81;10401894;28;20122;-77
2023/09/18 16:33:49;;;;;;;3.67;1.42;;;;;;;22.13;64.59;99264.00;10418237;28;20052;-77
2023/09/18 16:38:54;;;;;;;5.20;1.75;;;;;;;22.52;63.47;99266.31;10453374;28;20878;-77
2023/09/18 16:43:57;;;;;;;3.47;1.90;;;;;;;22.70;63.93;99261.88;10455916;28;20044;-77
2023/09/18 16:48:59;;;;;;;5.57;1.33;;;;;;;23.00;63.11;99261.88;10450269;28;20055;-76
2023/09/18 16:54:04;;;;;;;2.42;1.30;;;;;;;22.94;62.05;99266.38;10447837;28;20578;-77
2023/09/18 16:59:07;;;;;;;2.75;1.45;;;;;;;22.36;62.54;99271.53;10454028;28;20644;-77
2023/09/18 17:04:11;;;;;;;3.20;1.40;;;;;;;21.91;63.92;99272.63;10452357;28;21482;-77
2023/09/18 17:09:16;;;;;;;3.80;1.50;;;;;;;21.75;64.33;99262.28;10458633;28;20039;-78
2023/09/18 17:14:19;;;;;;;2.85;1.60;;;;;;;21.57;64.12;99257.59;10471839;28;20060;-77
2023/09/18 17:19:22;;;;;;;2.92;1.50;;;;;;;21.50;63.53;99259.53;10466999;28;20052;-77
2023/09/18 17:24:26;;;;;;;4.50;1.77;;;;;;;21.53;63.35;99259.94;10460576;28;20044;-77
2023/09/18 17:29:29;;;;;;;6.55;2.08;;;;;;;21.48;63.17;99259.78;10448644;28;20522;-77
2023/09/18 17:34:32;;;;;;;2.88;1.58;;;;;;;21.19;63.25;99259.34;10449712;28;20048;-77
2023/09/18 17:39:36;;;;;;;3.45;1.70;;;;;;;21.09;63.30;99255.44;10456674;28;20044;-77
2023/09/18 17:44:39;;;;;;;2.97;1.55;;;;;;;21.04;63.48;99252.56;10463154;28;20071;-77
2023/09/18 17:49:43;;;;;;;2.85;1.60;;;;;;;20.97;62.99;99258.00;10458977;28;21333;-77
2023/09/18 17:54:47;;;;;;;2.22;1.88;;;;;;;20.84;63.28;99256.19;10453593;28;20052;-77
2023/09/18 17:59:52;;;;;;;2.88;1.75;;;;;;;20.75;62.95;99255.59;10447226;28;20059;-76
2023/09/18 18:04:55;;;;;;;2.80;1.95;;;;;;;20.65;62.89;99255.25;10448154;28;20059;-76
2023/09/18 18:09:59;;;;;;;3.15;2.03;;;;;;;20.74;62.48;99275.78;10444535;28;20443;-75
2023/09/18 18:15:04;;;;;;;4.25;2.00;;;;;;;20.63;62.71;99271.00;10445992;28;20052;-76
2023/09/18 18:20:08;;;;;;;3.17;1.70;;;;;;;20.59;62.86;99271.66;10442555;28;20087;-75
2023/09/18 18:25:15;;;;;;;4.25;1.90;;;;;;;20.59;62.98;99272.47;10446021;28;20040;-75
2023/09/18 18:30:20;;;;;;;1.90;1.77;;;;;;;20.53;63.01;99274.19;10449316;28;20048;-76
2023/09/18 18:35:23;;;;;;;1.73;1.45;;;;;;;20.46;62.99;99273.38;10445559;28;20586;-74
2023/09/18 18:40:27;;;;;;;2.75;1.65;;;;;;;20.60;62.93;99271.44;10450575;28;21286;-75
2023/09/18 18:45:30;;;;;;;2.33;1.33;;;;;;;20.55;62.61;99266.63;10447856;28;20067;-75
2023/09/18 18:50:34;;;;;;;1.92;1.70;;;;;;;20.58;62.44;99268.09;10452248;28;20594;-75
2023/09/18 18:55:39;;;;;;;2.20;1.40;;;;;;;20.54;62.15;99284.06;10445157;28;20576;-75
2023/09/18 19:00:42;;;;;;;2.92;1.60;;;;;;;20.60;61.51;99271.44;10453583;28;20078;-75
2023/09/18 19:05:45;;;;;;;3.08;1.40;;;;;;;20.51;61.92;99272.72;10453793;28;20116;-75
2023/09/18 19:10:50;;;;;;;3.05;1.77;;;;;;;20.60;61.46;99267.84;10454486;28;20185;-76
2023/09/18 19:15:54;;;;;;;3.15;1.60;;;;;;;20.51;61.60;99268.09;10451719;28;20059;-76
2023/09/18 19:20:58;;;;;;;2.35;1.70;;;;;;;20.59;61.13;99272.47;10450446;28;20184;-75
2023/09/18 19:26:03;;;;;;;1.02;1.00;;;;;;;19.43;60.33;99325.66;10450046;28;20131;-75
2023/09/18 19:31:08;;;;;;;11.63;1.80;;;;;;;18.45;62.17;99325.09;10452023;28;20055;-76
2023/09/18 19:36:11;;;;;;;0.60;0.60;;;;;;;17.95;63.04;99380.56;10447144;28;20052;-75
2023/09/18 19:41:19;;;;;;;15.75;2.50;;;;;;;14.65;100.00;99394.16;10457113;28;20052;-78
2023/09/18 19:46:21;;;;;;;7.10;1.30;;;;;;;14.10;100.00;99387.69;10452728;28;20736;-77
2023/09/18 19:51:24;;;;;;;6.32;1.80;;;;;;;13.84;100.00;99392.44;10459010;28;20051;-77
2023/09/18 19:56:30;;;;;;;7.95;2.05;;;;;;;13.99;100.00;99398.84;10451485;28;20492;-78
2023/09/18 20:01:33;;;;;;;4.38;1.70;;;;;;;14.34;100.00;99427.31;10448255;28;20049;-77
2023/09/18 20:06:36;;;;;;;3.05;2.00;;;;;;;14.45;100.00;99419.88;10453111;28;20424;-78
2023/09/18 20:11:42;;;;;;;3.83;1.85;;;;;;;14.29;100.00;99418.88;10464128;28;20118;-77
2023/09/18 20:16:45;;;;;;;3.40;2.20;;;;;;;14.37;100.00;99402.66;10455075;28;20143;-77
2023/09/18 20:21:51;;;;;;;3.65;2.00;;;;;;;14.57;100.00;99407.69;10454164;28;20048;-79
2023/09/18 20:26:57;;;;;;;5.82;2.17;;;;;;;14.66;100.00;99401.22;10452634;28;20680;-79
2023/09/18 20:32:00;;;;;;;3.30;1.98;;;;;;;14.68;100.00;99403.78;10469497;28;20056;-78
2023/09/18 20:37:05;;;;;;;3.78;2.60;;;;;;;14.73;100.00;99391.41;10479472;28;20064;-78
2023/09/18 20:42:09;;;;;;;6.25;2.22;;;;;;;14.60;100.00;99402.78;10469351;28;20058;-77
2023/09/18 20:47:12;;;;;;;7.25;2.60;;;;;;;14.37;100.00;99408.06;10458669;28;21683;-79
2023/09/18 20:52:16;;;;;;;3.97;1.73;;;;;;;14.42;100.00;99406.72;10459564;28;20526;-77
2023/09/18 20:57:20;;;;;;;6.72;2.63;;;;;;;14.57;100.00;99391.47;10477459;28;20052;-78
2023/09/18 21:02:24;;;;;;;6.85;2.53;;;;;;;14.63;100.00;99395.34;10473122;28;20044;-78
2023/09/18 21:07:28;;;;;;;2.42;2.08;;;;;;;14.67;100.00;99402.91;10451050;28;20044;-79
2023/09/18 21:12:32;;;;;;;2.88;1.67;;;;;;;14.54;100.00;99402.66;10457428;28;20443;-79
2023/09/18 21:17:35;;;;;;;3.03;1.83;;;;;;;14.33;100.00;99408.56;10456289;28;20052;-78
2023/09/18 21:22:39;;;;;;;6.03;2.20;;;;;;;14.41;100.00;99421.25;10453134;28;20065;-77
2023/09/18 21:27:44;;;;;;;3.88;2.10;;;;;;;14.50;100.00;99398.59;10451511;28;20057;-77
2023/09/18 21:32:47;;;;;;;4.88;2.13;;;;;;;14.35;100.00;99395.75;10444625;28;20075;-77
2023/09/18 21:37:52;;;;;;;3.20;2.00;;;;;;;14.49;100.00;99397.75;10446280;28;20126;-77
2023/09/18 21:42:57;;;;;;;6.75;1.70;;;;;;;14.70;100.00;99399.00;10434180;28;20056;-77
2023/09/18 21:48:01;;;;;;;2.63;1.70;;;;;;;14.63;100.00;99417.81;10440531;28;20056;-77
2023/09/18 21:53:05;;;;;;;3.10;2.08;;;;;;;14.62;100.00;99415.25;10442658;28;20050;-77
2023/09/18 21:58:09;;;;;;;1.65;1.55;;;;;;;14.65;100.00;99425.75;10440114;28;20098;-78
2023/09/18 22:03:12;;;;;;;1.90;1.50;;;;;;;14.86;100.00;99422.44;10437238;28;20053;-77
2023/09/18 22:08:15;;;;;;;3.15;1.80;;;;;;;14.76;100.00;99437.00;10448314;28;20037;-77
2023/09/18 22:13:19;;;;;;;1.88;1.50;;;;;;;14.66;100.00;99428.25;10464575;28;20048;-77
2023/09/18 22:18:22;;;;;;;3.83;1.80;;;;;;;14.75;100.00;99427.19;10446287;28;20134;-77
2023/09/18 22:23:27;;;;;;;2.53;1.23;;;;;;;14.66;100.00;99439.06;10438489;28;20052;-77
2023/09/18 22:28:32;;;;;;;2.72;1.60;;;;;;;14.84;100.00;99444.25;10442315;28;20048;-77
2023/09/18 22:33:34;;;;;;;3.10;1.95;;;;;;;14.63;100.00;99461.03;10450026;28;20693;-77
2023/09/18 22:38:46;;;;;;;5.25;2.08;;;;;;;14.52;100.00;99450.59;10443275;28;20583;-77
2023/09/18 22:44:26;;;;;;;3.40;2.03;;;;;;;14.45;100.00;99457.69;10481429;28;20053;-76
2023/09/18 22:50:07;;;;;;;5.68;2.22;;;;;;;14.74;100.00;99455.25;10443900;28;20045;-76
2023/09/18 22:55:13;;;;;;;2.75;2.30;;;;;;;14.82;100.00;99466.03;10440473;28;20062;-76
2023/09/18 23:00:18;;;;;;;3.38;2.22;;;;;;;14.77;100.00;99471.13;10442182;28;20040;-77
2023/09/18 23:05:23;;;;;;;6.25;2.20;;;;;;;14.85;100.00;99450.50;10435748;28;20047;-76
2023/09/18 23:10:28;;;;;;;4.72;2.40;;;;;;;14.79;100.00;99468.28;10430304;28;20550;-76
2023/09/18 23:15:33;;;;;;;4.05;2.22;;;;;;;14.64;100.00;99465.41;10430730;28;20408;-76
2023/09/18 23:20:37;;;;;;;6.40;2.95;;;;;;;14.77;100.00;99465.72;10434196;28;20115;-76
2023/09/18 23:25:43;;;;;;;5.65;2.97;;;;;;;14.66;100.00;99485.00;10434989;28;20053;-77
2023/09/18 23:30:47;;;;;;;6.05;2.95;;;;;;;14.78;100.00;99490.88;10434375;28;20131;-76